+91-9650519870      info@tradegeniusglobal.in

atron IMPORT DATA IN INDIA | atron IMPORTER IN INDIA

atron IMPORT DATA IN INDIA | atron IMPORTER IN INDIA

Trade Genius Global provide atron import data in India with details like importers in India Exporter from oversees countries like USA, China, Germany France, Indonesia, Turkey, Thailand, Brazil, Sri Lanka, Argentina, Bolivia, Chile, Columbia, Ecuador, Mexico, Panama, Paraguay, Peru, Uruguay, Venezuela, Costa Rica, Ukraine, Bangladesh, Nepal, Vietnam and Singapore etc with price details including Import duty.

Content of data record are as Bill of Entry Data, H.S Code, Product Description, Value, Quantity, Unit Price in INR & USD , CIF Value, Custom Duty, Foreign Country port and more.

Import/Export records for the product atron:

SB Date HS Code Product Quantity Unit Value in USD Unit in USD Foreign Port Foreign Country Indian Port Mode
11-01-2016 76061190 11375.GH Aluminum foil, 0.25mm (0.01in) thick, Puratronic?, - 10 MTR 27.97 2.8 UNITED KINGDOM HYDERABAD AIR
11-01-2016 74102200 10950.HV 3 x 25x200mm Copper foil, 0.025mm (0.001in) thick, - Puratronic?, 5 MTR 27.83 5.57 UNITED KINGDOM HYDERABAD AIR
11-02-2016 90185090 MAINBOARD FOR MAGATRON S4 - PARTS FOR PHACO EMULSIFICATION SYSTEM 1 NOS 6429.02 6429.02 GERMANY CHENNAI AIR
11-03-2016 87082900 8R1-927-156-T MECHATRON. (PARTS FOR AUTOMOBILE FOR CAPTIVE C - ONSUMPTION) 1 NOS 1330.25 1330.25 GERMANY BANGLORE AIR
11-03-2016 32121000 HOT STAMPING FOIL (EXIDE SOLATUBULAR AND EXIDE SOLATRON)EPAP - CERT NO C023-16-0002323 DT.31-10-2016 365 KGS 1556.39 4.26 KOREA,REPUBLIC OF KOLKATA AIR
11-03-2016 28402090 10739.14 Lithium metaborate, Puratronic?, 99.997% (metals b - 50 GMS 56.25 1.13 UNITED KINGDOM HYDERABAD AIR
11-03-2016 28276090 10656.04 Bismuth(III) iodide, Puratronic?, 99.999% (metals - 2 GMS 12.66 6.33 UNITED KINGDOM HYDERABAD AIR
11-04-2016 28342990 10816.18 Nickel(II) nitrate hexahydrate, Puratronic?, 99.99 - 50 GMS 35.02 0.7 UNITED KINGDOM HYDERABAD AIR
11-05-2016 74081990 10974.G1 Copper wire, 1.0mm (0.04in) dia, Puratronic?, 99.9 - 1 MTR 42.31 42.31 UNITED KINGDOM HYDERABAD AIR
11-05-2016 28170010 11137.09 Zinc oxide, Puratronic?, 99.999% (metals basis) - 20 GMS 52.92 2.65 UNITED KINGDOM HYDERABAD AIR
11-05-2016 28170010 11137.09 Zinc oxide, Puratronic?, 99.999% (metals basis) - 20 GMS 52.92 2.65 UNITED KINGDOM HYDERABAD AIR
11-07-2016 84661010 U10 34400 KUB QUATRON W8344/44/88 40X68 R[DRILL BODY] - 1 PCS 208.63 208.63 GERMANY BANGLORE AIR
11-07-2016 84661010 U10 34400 KUB QUATRON W8344/44/88 40X68 R[DRILL BODY] - 1 PCS 208.63 208.63 GERMANY BANGLORE AIR
11-07-2016 84661010 U11 52250 KUB QUATRON ABS50/W8323/22,5/69/R [DRILL BODY] - 1 PCS 207.66 207.66 GERMANY BANGLORE AIR
11-07-2016 84799090 12.87.0294 NYLON BUSH-NYLATRON GSM (CRUSHER MACHINE PARTS) - 6 NOS 294 49 UNITED KINGDOM BANGLORE AIR
11-07-2016 90279090 (FOC) S060000024 BARATRON MKS HEATED 10TORR (AMBIENT TEMPERA - TURE CAPACITANCE MANOMETERS)(USED TO MEASURING THE PRESSURE 1 NOS 1614.81 1614.81 NETHERLANDS BANGLORE AIR
11-07-2016 85408900 HYDROGEN THYRATRON-HY 11(SCHWIND ESIRIS LASIK MACHINE THYRA - TRON) 1 NOS 4179.96 4179.96 UNITED STATES KARIPUR (CALICUT) AIR
11-07-2016 84669310 000161895SPANNPATRONE KS 50-07 CLAMPING CARTRIDGE (CAPTIVE C - ONSUMPTION) - 1 PC (PARTS OF MACHINE TOOL ) 1 PCS 379.04 379.04 GERMANY KOLKATA AIR
11-07-2016 73182990 ALPHATRON (SHIPS SPARES IN TRANSIT FOR M.T. SONGA WINDS) - 1 PAC 40.13 40.13 NETHERLANDS KOLKATA AIR
11-07-2016 85437099 JATRONICS EX FOR GP340(DTLS.AS PER INV.) - 5 PCS 1421.1 284.22 UNITED KINGDOM KOLKATA AIR
11-07-2016 81101000 10598.18 Antimony lump, polycrystalline, Puratronic?, 99.99 - 50 GMS 138.27 2.77 UNITED KINGDOM HYDERABAD AIR
11-07-2016 28276090 10656.04 Bismuth(III) iodide, Puratronic?, 99.999% (metals - 2 GMS 12.66 6.33 UNITED KINGDOM HYDERABAD AIR
11-07-2016 28342990 10799.06 Magnesium nitrate hydrate, Puratronic?, 99.999% (m - 5 GMS 11.17 2.23 UNITED KINGDOM HYDERABAD AIR
11-07-2016 28342990 10806.04 Manganese(II) nitrate hydrate, Puratronic?, 99.999 - 2 GMS 8.06 4.03 UNITED KINGDOM HYDERABAD AIR
11-07-2016 81129900 11144.14 Germanium pieces, 2cm (0.8in) & down, Puratronic?, - 25 GMS 171.77 6.87 UNITED KINGDOM HYDERABAD AIR
11-03-2016 22083011 PATRON XO CAFE LIQUEUR 6*750ML - 1 CTN 47.55 47.55 UNITED KINGDOM GARHI HARSARU (GURGAON) ICD
11-03-2016 84798999 KED 600 BATCH CLEANING MACHINE INCLUDES DOSATRON AUTOMATIC C - HEMICAL MIXING DEVICE CHEMICAL STIRRER CONCENTRATION BALANCE 1 SET 32177.36 32177.36 CHINA HYDERABAD ICD
11-02-2016 90219090 ACC. OF PACEMAKER- INTRODUCER KIT VIK7S1 VITATRON 1 PK - 66 PCS 1219.09 18.47 MEXICO BOMBAY AIR
11-02-2016 90215000 PACEMAKER- IPG E10A1 VITATRON E-SERIES S OUS MR MSO - 13 PCS 3168.61 243.74 SINGAPORE BOMBAY AIR
11-02-2016 90215000 PACEMAKER- IPG E10A1 VITATRON E-SERIES S OUS MR MSO - 21 PCS 5118.52 243.74 SINGAPORE BOMBAY AIR
11-02-2016 90215000 PACEMAKER- IPG A30A1 VITATRON A SERIES IS-1 VDD MSO - 4 PCS 1118.19 279.55 SINGAPORE BOMBAY AIR
11-02-2016 90215000 PACEMAKER- IPG E10A1 VITATRON E-SERIES S OUS MR MSO - 6 PCS 1462.43 243.74 SINGAPORE BOMBAY AIR
11-02-2016 90215000 PACEMAKER- IPG E50A1 VITATRON E-SERIES D OUS MR MSO - 13 PCS 3588.99 276.08 SINGAPORE BOMBAY AIR
11-02-2016 90215000 PACEMAKER- IPG G20A1 VITATRON G-SERIES SR OUS MSO - 10 PCS 2523.16 252.32 SINGAPORE BOMBAY AIR
11-02-2016 90215000 PACEMAKER- IPG A20A1 VITATRON A SERIES IS-1 SR MSO - 6 PCS 1534.42 255.74 SINGAPORE BOMBAY AIR
11-02-2016 90215000 PACEMAKER- IPG E50A1 VITATRON E-SERIES D OUS MR MSO - 5 PCS 1380.38 276.08 SINGAPORE BOMBAY AIR
11-02-2016 90215000 PACEMAKER- IPG E60A1 VITATRON E-SERIES DR OUS MSO - 2 PCS 551.97 275.98 SINGAPORE BOMBAY AIR
11-02-2016 90215000 PACEMAKER- IPG A60A1 VITATRON A SERIES IS-1 DR MSO - 6 PCS 1654.07 275.68 SINGAPORE BOMBAY AIR
11-02-2016 90215000 PACEMAKER- IPG A30A1 VITATRON A SERIES IS-1 VDD MSO - 2 PCS 559.1 279.55 SINGAPORE BOMBAY AIR
11-02-2016 90215000 PACEMAKER- IPG A20A1 VITATRON A SERIES IS-1 SR MSO - 30 PCS 7672.09 255.74 SINGAPORE BOMBAY AIR
11-02-2016 90215000 PACEMAKER- IPG A10A1 VITATRON A SERIES IS-1 S MSO - 30 PCS 7376.49 245.88 SINGAPORE BOMBAY AIR
11-07-2016 87084000 0AM325025MZ2H MECHATRONIC WITH SOFTWARE (AUTOMOTIVE PARTS FO - R CAPTIVE CONSUMPTION) 1 PCS 688.95 688.95 GERMANY BOMBAY AIR
11-02-2016 87082900 0AM-325-025-H -ZLZ MECHATRON. (MECHATRONIC WITH SOFTWARE) (P - ARTS FOR AUTOMOBILE FOR CAPTIVE CONSUMPTION) 1 NOS 675.51 675.51 GERMANY DELHI AIR
11-05-2016 82031000 INH SUSPENSION FILES NATRON (FOR CAPTIVE USE ONLY) - 50 NOS 29.26 0.59 GERMANY DELHI AIR
11-05-2016 82031000 INH SUSPENSION FILES NATRON (FOR CAPTIVE USE ONLY) - 50 NOS 29.26 0.59 GERMANY DELHI AIR
11-07-2016 87082900 8R1-927-156-T MECHATRON.(MECHATRONIC WITH SOFTWARE) (PARTS F - OR AUTOMOBILE FOR CAPTIVE CONSUMPTION) 1 NOS 1331.23 1331.23 GERMANY DELHI AIR
11-07-2016 87082900 02E-325-025-AQ-Z1T MECHATRON. (MECHATRONIC WITH SOFTWARE) (P - ARTS FOR AUTOMOBILE FOR CAPTIVE CONSUMPTION) 1 NOS 788.67 788.67 GERMANY DELHI AIR
11-07-2016 85369090 CONNECTOR TYPE NO.LJ-683 OHW / 2LJ-683NHWN1 "SINGATRON" BRA - ND FOR P.A. SYSTEM FOR CAPTIVE CONSUMPTION 150000 PCS 28540.05 0.19 CHINA PATPARGANJ ICD
11-01-2016 87089900 0AM325025H ZM3 MECHATRON. (AUTOMOTIVE PARTS FOR CAPTIVE CONSUMPTION) 5 PCS 2663.72 532.74 CZECH REPUBLIC JNPT SEA
11-01-2016 87089900 0AM325025L Z3E MECHATRONIC WITH SOFTWARE (AUTOMOTIVE PARTS FOR CAPTIVE CONSUMPTION) 1 PCS 601.59 601.59 CZECH REPUBLIC JNPT SEA

Sample Data on Request

Submit this form below to get import or export sample data.

Take advantages with the Help of Our Export Import Products

Trade Genius Global provides Export Import data on the value and quantity of merchandise exported and imported between various countries and its trading partners. We are providing information about actual overseas importers and exporters, having the largest databases in terms of both the number of countries included in its database.

gujarat export import data

Search Import Export Data

Import Export

Export Products New Market

Here you will get top import and export products data of various countries.

Learn More

Monitor Competitors

An organized import export directory will help you to monitor Competitors in the market.

Learn More

Find Importers and Exporters

Increase Business Leads & Find exporters and importers of thousands of import and export products.

Learn More

Increase Business Leads

Gather data about Import export and take your business to a new level.

Learn More